sensor_id;sensor_type;location;lat;lon;timestamp;P1;durP1;ratioP1;P2;durP2;ratioP2
79616;SDS011;69097;52.132;5.422;2024-01-30T00:01:33;16.42;;;7.63;;
79616;SDS011;69097;52.132;5.422;2024-01-30T00:04:00;13.65;;;7.85;;
79616;SDS011;69097;52.132;5.422;2024-01-30T00:06:27;16.17;;;8.18;;
79616;SDS011;69097;52.132;5.422;2024-01-30T00:08:54;14.50;;;7.47;;
79616;SDS011;69097;52.132;5.422;2024-01-30T00:11:20;14.48;;;7.78;;
79616;SDS011;69097;52.132;5.422;2024-01-30T00:13:47;15.43;;;7.38;;
79616;SDS011;69097;52.132;5.422;2024-01-30T00:16:22;15.45;;;7.95;;
79616;SDS011;69097;52.132;5.422;2024-01-30T00:18:52;14.40;;;7.13;;
79616;SDS011;69097;52.132;5.422;2024-01-30T00:21:20;15.38;;;7.85;;
79616;SDS011;69097;52.132;5.422;2024-01-30T00:23:47;13.57;;;6.88;;
79616;SDS011;69097;52.132;5.422;2024-01-30T00:26:13;15.35;;;8.10;;
79616;SDS011;69097;52.132;5.422;2024-01-30T00:28:41;17.15;;;8.07;;
79616;SDS011;69097;52.132;5.422;2024-01-30T00:31:08;14.32;;;7.70;;
79616;SDS011;69097;52.132;5.422;2024-01-30T00:33:38;18.23;;;7.57;;
79616;SDS011;69097;52.132;5.422;2024-01-30T00:36:06;15.52;;;8.20;;
79616;SDS011;69097;52.132;5.422;2024-01-30T00:38:33;12.98;;;7.60;;
79616;SDS011;69097;52.132;5.422;2024-01-30T00:41:00;15.23;;;8.30;;
79616;SDS011;69097;52.132;5.422;2024-01-30T00:43:28;15.35;;;10.00;;
79616;SDS011;69097;52.132;5.422;2024-01-30T00:45:54;15.32;;;7.63;;
79616;SDS011;69097;52.132;5.422;2024-01-30T00:48:21;14.60;;;7.75;;
79616;SDS011;69097;52.132;5.422;2024-01-30T00:50:47;13.90;;;7.60;;
79616;SDS011;69097;52.132;5.422;2024-01-30T00:53:14;14.25;;;7.57;;
79616;SDS011;69097;52.132;5.422;2024-01-30T00:55:40;15.10;;;7.60;;
79616;SDS011;69097;52.132;5.422;2024-01-30T00:58:07;12.90;;;7.35;;
79616;SDS011;69097;52.132;5.422;2024-01-30T01:00:34;16.05;;;7.82;;
79616;SDS011;69097;52.132;5.422;2024-01-30T01:03:01;16.67;;;7.65;;
79616;SDS011;69097;52.132;5.422;2024-01-30T01:05:28;16.38;;;7.28;;
79616;SDS011;69097;52.132;5.422;2024-01-30T01:07:54;15.45;;;6.90;;
79616;SDS011;69097;52.132;5.422;2024-01-30T01:10:20;14.50;;;7.45;;
79616;SDS011;69097;52.132;5.422;2024-01-30T01:12:47;15.20;;;7.45;;
79616;SDS011;69097;52.132;5.422;2024-01-30T01:15:14;14.18;;;7.32;;
79616;SDS011;69097;52.132;5.422;2024-01-30T01:17:40;15.07;;;7.65;;
79616;SDS011;69097;52.132;5.422;2024-01-30T01:20:07;12.82;;;7.22;;
79616;SDS011;69097;52.132;5.422;2024-01-30T01:22:34;12.25;;;6.85;;
79616;SDS011;69097;52.132;5.422;2024-01-30T01:25:01;12.85;;;7.38;;
79616;SDS011;69097;52.132;5.422;2024-01-30T01:27:27;13.95;;;7.10;;
79616;SDS011;69097;52.132;5.422;2024-01-30T01:29:54;13.98;;;7.18;;
79616;SDS011;69097;52.132;5.422;2024-01-30T01:32:20;13.38;;;6.60;;
79616;SDS011;69097;52.132;5.422;2024-01-30T01:34:47;12.55;;;6.78;;
79616;SDS011;69097;52.132;5.422;2024-01-30T01:37:14;15.77;;;6.80;;
79616;SDS011;69097;52.132;5.422;2024-01-30T01:39:40;13.25;;;6.57;;
79616;SDS011;69097;52.132;5.422;2024-01-30T01:42:07;12.02;;;6.13;;
79616;SDS011;69097;52.132;5.422;2024-01-30T01:44:33;14.93;;;6.80;;
79616;SDS011;69097;52.132;5.422;2024-01-30T01:47:00;11.60;;;5.82;;
79616;SDS011;69097;52.132;5.422;2024-01-30T01:49:27;14.40;;;6.65;;
79616;SDS011;69097;52.132;5.422;2024-01-30T01:51:55;11.65;;;6.20;;
79616;SDS011;69097;52.132;5.422;2024-01-30T01:54:25;15.23;;;6.80;;
79616;SDS011;69097;52.132;5.422;2024-01-30T01:56:53;13.57;;;6.45;;
79616;SDS011;69097;52.132;5.422;2024-01-30T01:59:20;13.50;;;6.82;;
79616;SDS011;69097;52.132;5.422;2024-01-30T02:01:48;14.80;;;6.57;;
79616;SDS011;69097;52.132;5.422;2024-01-30T02:04:17;12.73;;;6.65;;
79616;SDS011;69097;52.132;5.422;2024-01-30T02:06:44;12.98;;;6.22;;
79616;SDS011;69097;52.132;5.422;2024-01-30T02:09:10;14.93;;;6.75;;
79616;SDS011;69097;52.132;5.422;2024-01-30T02:11:37;12.93;;;5.90;;
79616;SDS011;69097;52.132;5.422;2024-01-30T02:14:04;15.57;;;6.22;;
79616;SDS011;69097;52.132;5.422;2024-01-30T02:16:31;14.77;;;6.05;;
79616;SDS011;69097;52.132;5.422;2024-01-30T02:18:58;13.20;;;6.22;;
79616;SDS011;69097;52.132;5.422;2024-01-30T02:21:24;12.75;;;6.20;;
79616;SDS011;69097;52.132;5.422;2024-01-30T02:23:51;11.32;;;6.47;;
79616;SDS011;69097;52.132;5.422;2024-01-30T02:26:18;13.13;;;6.07;;
79616;SDS011;69097;52.132;5.422;2024-01-30T02:28:45;13.20;;;6.45;;
79616;SDS011;69097;52.132;5.422;2024-01-30T02:31:11;13.55;;;6.43;;
79616;SDS011;69097;52.132;5.422;2024-01-30T02:33:38;11.40;;;6.10;;
79616;SDS011;69097;52.132;5.422;2024-01-30T02:36:04;12.15;;;5.80;;
79616;SDS011;69097;52.132;5.422;2024-01-30T02:38:31;12.35;;;5.68;;
79616;SDS011;69097;52.132;5.422;2024-01-30T02:40:57;13.45;;;5.97;;
79616;SDS011;69097;52.132;5.422;2024-01-30T02:43:24;11.32;;;5.97;;
79616;SDS011;69097;52.132;5.422;2024-01-30T02:45:50;11.63;;;6.20;;
79616;SDS011;69097;52.132;5.422;2024-01-30T02:48:17;12.52;;;5.82;;
79616;SDS011;69097;52.132;5.422;2024-01-30T02:50:43;13.77;;;6.68;;
79616;SDS011;69097;52.132;5.422;2024-01-30T02:53:10;13.05;;;7.38;;
79616;SDS011;69097;52.132;5.422;2024-01-30T02:55:36;15.00;;;7.07;;
79616;SDS011;69097;52.132;5.422;2024-01-30T02:58:03;13.63;;;7.00;;
79616;SDS011;69097;52.132;5.422;2024-01-30T03:00:30;14.90;;;7.53;;
79616;SDS011;69097;52.132;5.422;2024-01-30T03:02:56;14.80;;;7.05;;
79616;SDS011;69097;52.132;5.422;2024-01-30T03:05:22;17.27;;;7.65;;
79616;SDS011;69097;52.132;5.422;2024-01-30T03:07:49;14.90;;;7.70;;
79616;SDS011;69097;52.132;5.422;2024-01-30T03:10:16;15.88;;;7.65;;
79616;SDS011;69097;52.132;5.422;2024-01-30T03:12:42;17.27;;;8.77;;
79616;SDS011;69097;52.132;5.422;2024-01-30T03:15:09;19.23;;;8.45;;
79616;SDS011;69097;52.132;5.422;2024-01-30T03:17:36;17.13;;;8.80;;
79616;SDS011;69097;52.132;5.422;2024-01-30T03:20:03;19.13;;;9.88;;
79616;SDS011;69097;52.132;5.422;2024-01-30T03:22:32;18.55;;;8.50;;
79616;SDS011;69097;52.132;5.422;2024-01-30T03:24:58;18.17;;;9.05;;
79616;SDS011;69097;52.132;5.422;2024-01-30T03:27:25;17.58;;;9.10;;
79616;SDS011;69097;52.132;5.422;2024-01-30T03:29:51;18.02;;;9.23;;
79616;SDS011;69097;52.132;5.422;2024-01-30T03:32:18;16.13;;;8.30;;
79616;SDS011;69097;52.132;5.422;2024-01-30T03:34:44;14.00;;;8.10;;
79616;SDS011;69097;52.132;5.422;2024-01-30T03:37:11;16.42;;;8.02;;
79616;SDS011;69097;52.132;5.422;2024-01-30T03:39:37;15.68;;;7.57;;
79616;SDS011;69097;52.132;5.422;2024-01-30T03:42:04;13.57;;;7.10;;
79616;SDS011;69097;52.132;5.422;2024-01-30T03:44:30;16.90;;;7.32;;
79616;SDS011;69097;52.132;5.422;2024-01-30T03:46:57;15.05;;;6.82;;
79616;SDS011;69097;52.132;5.422;2024-01-30T03:49:23;13.45;;;6.13;;
79616;SDS011;69097;52.132;5.422;2024-01-30T03:51:50;14.18;;;6.72;;
79616;SDS011;69097;52.132;5.422;2024-01-30T03:54:17;14.40;;;6.32;;
79616;SDS011;69097;52.132;5.422;2024-01-30T03:56:43;13.27;;;6.25;;
79616;SDS011;69097;52.132;5.422;2024-01-30T03:59:09;13.20;;;6.47;;
79616;SDS011;69097;52.132;5.422;2024-01-30T04:01:36;11.80;;;5.40;;
79616;SDS011;69097;52.132;5.422;2024-01-30T04:04:02;13.90;;;6.05;;
79616;SDS011;69097;52.132;5.422;2024-01-30T04:06:29;13.00;;;5.82;;
79616;SDS011;69097;52.132;5.422;2024-01-30T04:08:56;11.93;;;5.68;;
79616;SDS011;69097;52.132;5.422;2024-01-30T04:11:22;11.30;;;5.93;;
79616;SDS011;69097;52.132;5.422;2024-01-30T04:13:48;10.55;;;5.22;;
79616;SDS011;69097;52.132;5.422;2024-01-30T04:16:19;12.45;;;6.32;;
79616;SDS011;69097;52.132;5.422;2024-01-30T04:18:47;10.05;;;4.88;;
79616;SDS011;69097;52.132;5.422;2024-01-30T04:21:14;11.38;;;5.28;;
79616;SDS011;69097;52.132;5.422;2024-01-30T04:23:41;11.88;;;5.28;;
79616;SDS011;69097;52.132;5.422;2024-01-30T04:26:07;10.63;;;5.25;;
79616;SDS011;69097;52.132;5.422;2024-01-30T04:28:34;11.02;;;5.30;;
79616;SDS011;69097;52.132;5.422;2024-01-30T04:31:00;12.15;;;5.88;;
79616;SDS011;69097;52.132;5.422;2024-01-30T04:33:27;10.23;;;5.22;;
79616;SDS011;69097;52.132;5.422;2024-01-30T04:35:54;10.27;;;5.00;;
79616;SDS011;69097;52.132;5.422;2024-01-30T04:38:20;9.45;;;5.43;;
79616;SDS011;69097;52.132;5.422;2024-01-30T04:40:46;13.10;;;6.95;;
79616;SDS011;69097;52.132;5.422;2024-01-30T04:43:13;10.30;;;5.50;;
79616;SDS011;69097;52.132;5.422;2024-01-30T04:45:41;10.63;;;4.72;;
79616;SDS011;69097;52.132;5.422;2024-01-30T04:48:08;10.88;;;5.50;;
79616;SDS011;69097;52.132;5.422;2024-01-30T04:50:34;12.10;;;5.38;;
79616;SDS011;69097;52.132;5.422;2024-01-30T04:53:01;10.27;;;4.80;;
79616;SDS011;69097;52.132;5.422;2024-01-30T04:55:27;14.13;;;5.18;;
79616;SDS011;69097;52.132;5.422;2024-01-30T04:57:54;11.52;;;5.30;;
79616;SDS011;69097;52.132;5.422;2024-01-30T05:00:20;13.68;;;5.30;;
79616;SDS011;69097;52.132;5.422;2024-01-30T05:02:47;9.82;;;5.53;;
79616;SDS011;69097;52.132;5.422;2024-01-30T05:05:13;10.23;;;4.97;;
79616;SDS011;69097;52.132;5.422;2024-01-30T05:07:41;11.30;;;5.32;;
79616;SDS011;69097;52.132;5.422;2024-01-30T05:10:07;11.93;;;5.93;;
79616;SDS011;69097;52.132;5.422;2024-01-30T05:12:34;14.18;;;5.40;;
79616;SDS011;69097;52.132;5.422;2024-01-30T05:15:01;11.10;;;5.32;;
79616;SDS011;69097;52.132;5.422;2024-01-30T05:17:27;9.93;;;5.18;;
79616;SDS011;69097;52.132;5.422;2024-01-30T05:19:54;10.75;;;5.43;;
79616;SDS011;69097;52.132;5.422;2024-01-30T05:22:20;9.45;;;4.80;;
79616;SDS011;69097;52.132;5.422;2024-01-30T05:24:47;10.77;;;4.90;;
79616;SDS011;69097;52.132;5.422;2024-01-30T05:27:13;11.80;;;5.18;;
79616;SDS011;69097;52.132;5.422;2024-01-30T05:29:40;9.90;;;5.22;;
79616;SDS011;69097;52.132;5.422;2024-01-30T05:32:09;12.00;;;5.35;;
79616;SDS011;69097;52.132;5.422;2024-01-30T05:34:36;10.07;;;4.72;;
79616;SDS011;69097;52.132;5.422;2024-01-30T05:37:03;10.65;;;5.10;;
79616;SDS011;69097;52.132;5.422;2024-01-30T05:39:30;12.25;;;5.03;;
79616;SDS011;69097;52.132;5.422;2024-01-30T05:41:59;13.80;;;5.43;;
79616;SDS011;69097;52.132;5.422;2024-01-30T05:44:25;11.82;;;5.38;;
79616;SDS011;69097;52.132;5.422;2024-01-30T05:46:52;9.82;;;5.38;;
79616;SDS011;69097;52.132;5.422;2024-01-30T05:49:18;11.50;;;5.35;;
79616;SDS011;69097;52.132;5.422;2024-01-30T05:51:44;11.90;;;5.55;;
79616;SDS011;69097;52.132;5.422;2024-01-30T05:54:11;11.80;;;5.13;;
79616;SDS011;69097;52.132;5.422;2024-01-30T05:56:41;11.43;;;5.43;;
79616;SDS011;69097;52.132;5.422;2024-01-30T05:59:08;11.68;;;5.35;;
79616;SDS011;69097;52.132;5.422;2024-01-30T06:01:34;11.57;;;5.78;;
79616;SDS011;69097;52.132;5.422;2024-01-30T06:04:01;10.82;;;5.40;;
79616;SDS011;69097;52.132;5.422;2024-01-30T06:06:28;12.07;;;5.20;;
79616;SDS011;69097;52.132;5.422;2024-01-30T06:08:54;11.00;;;5.35;;
79616;SDS011;69097;52.132;5.422;2024-01-30T06:11:22;11.80;;;5.75;;
79616;SDS011;69097;52.132;5.422;2024-01-30T06:13:48;11.48;;;5.57;;
79616;SDS011;69097;52.132;5.422;2024-01-30T06:16:15;12.60;;;5.18;;
79616;SDS011;69097;52.132;5.422;2024-01-30T06:18:41;12.05;;;5.60;;
79616;SDS011;69097;52.132;5.422;2024-01-30T06:21:08;11.85;;;5.45;;
79616;SDS011;69097;52.132;5.422;2024-01-30T06:23:38;10.75;;;4.65;;
79616;SDS011;69097;52.132;5.422;2024-01-30T06:26:05;11.15;;;5.55;;
79616;SDS011;69097;52.132;5.422;2024-01-30T06:28:32;12.10;;;5.75;;
79616;SDS011;69097;52.132;5.422;2024-01-30T06:31:00;10.85;;;5.55;;
79616;SDS011;69097;52.132;5.422;2024-01-30T06:33:27;10.32;;;5.10;;
79616;SDS011;69097;52.132;5.422;2024-01-30T06:35:54;13.27;;;5.32;;
79616;SDS011;69097;52.132;5.422;2024-01-30T06:38:20;12.68;;;5.85;;
79616;SDS011;69097;52.132;5.422;2024-01-30T06:40:47;12.63;;;5.55;;
79616;SDS011;69097;52.132;5.422;2024-01-30T06:43:13;11.68;;;4.90;;
79616;SDS011;69097;52.132;5.422;2024-01-30T06:45:40;12.13;;;4.95;;
79616;SDS011;69097;52.132;5.422;2024-01-30T06:48:08;11.40;;;5.82;;
79616;SDS011;69097;52.132;5.422;2024-01-30T06:50:34;10.85;;;5.20;;
79616;SDS011;69097;52.132;5.422;2024-01-30T06:53:01;12.77;;;5.43;;
79616;SDS011;69097;52.132;5.422;2024-01-30T06:55:27;11.65;;;5.03;;
79616;SDS011;69097;52.132;5.422;2024-01-30T06:57:54;15.10;;;5.50;;
79616;SDS011;69097;52.132;5.422;2024-01-30T07:00:21;11.65;;;5.40;;
79616;SDS011;69097;52.132;5.422;2024-01-30T07:05:15;10.25;;;4.80;;
79616;SDS011;69097;52.132;5.422;2024-01-30T07:07:41;12.18;;;5.25;;
79616;SDS011;69097;52.132;5.422;2024-01-30T07:10:08;11.52;;;4.80;;
79616;SDS011;69097;52.132;5.422;2024-01-30T07:12:35;10.65;;;5.07;;
79616;SDS011;69097;52.132;5.422;2024-01-30T07:15:02;10.57;;;4.65;;
79616;SDS011;69097;52.132;5.422;2024-01-30T07:17:29;10.18;;;4.53;;
79616;SDS011;69097;52.132;5.422;2024-01-30T07:19:55;10.02;;;4.72;;
79616;SDS011;69097;52.132;5.422;2024-01-30T07:22:22;13.10;;;5.15;;
79616;SDS011;69097;52.132;5.422;2024-01-30T07:24:49;10.38;;;4.93;;
79616;SDS011;69097;52.132;5.422;2024-01-30T07:27:17;12.15;;;5.75;;
79616;SDS011;69097;52.132;5.422;2024-01-30T07:29:44;12.13;;;6.03;;
79616;SDS011;69097;52.132;5.422;2024-01-30T07:32:11;10.95;;;4.80;;
79616;SDS011;69097;52.132;5.422;2024-01-30T07:34:37;10.65;;;5.47;;
79616;SDS011;69097;52.132;5.422;2024-01-30T07:37:18;12.20;;;5.53;;
79616;SDS011;69097;52.132;5.422;2024-01-30T07:39:45;10.95;;;5.18;;
79616;SDS011;69097;52.132;5.422;2024-01-30T07:42:11;10.50;;;5.60;;
79616;SDS011;69097;52.132;5.422;2024-01-30T07:44:38;12.88;;;5.45;;
79616;SDS011;69097;52.132;5.422;2024-01-30T07:47:05;13.10;;;5.35;;
79616;SDS011;69097;52.132;5.422;2024-01-30T07:49:32;12.43;;;4.65;;
79616;SDS011;69097;52.132;5.422;2024-01-30T07:51:58;11.63;;;5.35;;
79616;SDS011;69097;52.132;5.422;2024-01-30T07:57:00;9.13;;;4.72;;
79616;SDS011;69097;52.132;5.422;2024-01-30T07:59:27;13.60;;;5.55;;
79616;SDS011;69097;52.132;5.422;2024-01-30T08:02:04;9.75;;;4.75;;
79616;SDS011;69097;52.132;5.422;2024-01-30T08:04:30;12.68;;;4.80;;
79616;SDS011;69097;52.132;5.422;2024-01-30T08:06:57;13.48;;;5.10;;
79616;SDS011;69097;52.132;5.422;2024-01-30T08:09:24;11.50;;;5.15;;
79616;SDS011;69097;52.132;5.422;2024-01-30T08:11:50;9.23;;;5.05;;
79616;SDS011;69097;52.132;5.422;2024-01-30T08:14:18;11.48;;;5.50;;
79616;SDS011;69097;52.132;5.422;2024-01-30T08:16:44;12.35;;;5.25;;
79616;SDS011;69097;52.132;5.422;2024-01-30T08:19:11;11.07;;;5.38;;
79616;SDS011;69097;52.132;5.422;2024-01-30T08:21:38;13.30;;;4.88;;
79616;SDS011;69097;52.132;5.422;2024-01-30T08:24:05;10.55;;;4.53;;
79616;SDS011;69097;52.132;5.422;2024-01-30T08:26:33;10.50;;;5.55;;
79616;SDS011;69097;52.132;5.422;2024-01-30T08:29:00;13.00;;;5.13;;
79616;SDS011;69097;52.132;5.422;2024-01-30T08:31:28;17.77;;;5.97;;
79616;SDS011;69097;52.132;5.422;2024-01-30T08:33:55;12.88;;;5.03;;
79616;SDS011;69097;52.132;5.422;2024-01-30T08:36:22;14.40;;;4.95;;
79616;SDS011;69097;52.132;5.422;2024-01-30T08:38:48;13.15;;;4.57;;
79616;SDS011;69097;52.132;5.422;2024-01-30T08:41:15;14.55;;;5.03;;
79616;SDS011;69097;52.132;5.422;2024-01-30T08:43:42;9.15;;;4.85;;
79616;SDS011;69097;52.132;5.422;2024-01-30T08:46:08;10.40;;;4.85;;
79616;SDS011;69097;52.132;5.422;2024-01-30T08:48:35;11.98;;;5.10;;
79616;SDS011;69097;52.132;5.422;2024-01-30T08:51:02;12.73;;;5.72;;
79616;SDS011;69097;52.132;5.422;2024-01-30T08:53:29;10.52;;;5.10;;
79616;SDS011;69097;52.132;5.422;2024-01-30T08:55:55;14.23;;;5.85;;
79616;SDS011;69097;52.132;5.422;2024-01-30T08:58:25;13.57;;;5.75;;
79616;SDS011;69097;52.132;5.422;2024-01-30T09:00:52;14.40;;;5.90;;
79616;SDS011;69097;52.132;5.422;2024-01-30T09:03:19;11.82;;;5.50;;
79616;SDS011;69097;52.132;5.422;2024-01-30T09:05:45;16.23;;;5.43;;
79616;SDS011;69097;52.132;5.422;2024-01-30T09:08:12;14.32;;;5.00;;
79616;SDS011;69097;52.132;5.422;2024-01-30T09:10:38;12.95;;;5.28;;
79616;SDS011;69097;52.132;5.422;2024-01-30T09:13:05;10.50;;;4.93;;
79616;SDS011;69097;52.132;5.422;2024-01-30T09:15:31;11.63;;;5.18;;
79616;SDS011;69097;52.132;5.422;2024-01-30T09:18:01;12.65;;;5.22;;
79616;SDS011;69097;52.132;5.422;2024-01-30T09:20:28;13.60;;;5.38;;
79616;SDS011;69097;52.132;5.422;2024-01-30T09:22:59;15.57;;;5.18;;
79616;SDS011;69097;52.132;5.422;2024-01-30T09:25:26;13.32;;;5.55;;
79616;SDS011;69097;52.132;5.422;2024-01-30T09:27:52;11.57;;;5.22;;
79616;SDS011;69097;52.132;5.422;2024-01-30T09:30:21;11.30;;;5.25;;
79616;SDS011;69097;52.132;5.422;2024-01-30T09:36:31;14.43;;;4.90;;
79616;SDS011;69097;52.132;5.422;2024-01-30T09:39:05;10.43;;;4.65;;
79616;SDS011;69097;52.132;5.422;2024-01-30T09:41:33;16.70;;;5.20;;
79616;SDS011;69097;52.132;5.422;2024-01-30T09:44:06;13.77;;;5.07;;
79616;SDS011;69097;52.132;5.422;2024-01-30T09:46:35;10.88;;;4.72;;
79616;SDS011;69097;52.132;5.422;2024-01-30T09:49:02;10.35;;;4.47;;
79616;SDS011;69097;52.132;5.422;2024-01-30T09:51:29;10.60;;;4.88;;
79616;SDS011;69097;52.132;5.422;2024-01-30T09:56:22;11.02;;;5.03;;
79616;SDS011;69097;52.132;5.422;2024-01-30T09:58:49;10.82;;;5.20;;
79616;SDS011;69097;52.132;5.422;2024-01-30T10:01:15;11.38;;;5.25;;
79616;SDS011;69097;52.132;5.422;2024-01-30T10:03:45;16.23;;;5.78;;
79616;SDS011;69097;52.132;5.422;2024-01-30T10:06:12;14.57;;;5.55;;
79616;SDS011;69097;52.132;5.422;2024-01-30T10:08:41;14.82;;;5.32;;
79616;SDS011;69097;52.132;5.422;2024-01-30T10:11:08;15.00;;;5.40;;
79616;SDS011;69097;52.132;5.422;2024-01-30T10:13:35;13.20;;;5.90;;
79616;SDS011;69097;52.132;5.422;2024-01-30T10:16:02;14.15;;;5.57;;
79616;SDS011;69097;52.132;5.422;2024-01-30T10:18:29;12.85;;;4.72;;
79616;SDS011;69097;52.132;5.422;2024-01-30T10:20:55;14.55;;;5.05;;
79616;SDS011;69097;52.132;5.422;2024-01-30T10:23:22;12.23;;;5.43;;
79616;SDS011;69097;52.132;5.422;2024-01-30T10:25:49;11.52;;;4.75;;
79616;SDS011;69097;52.132;5.422;2024-01-30T10:28:18;10.45;;;5.28;;
79616;SDS011;69097;52.132;5.422;2024-01-30T10:30:45;12.85;;;5.68;;
79616;SDS011;69097;52.132;5.422;2024-01-30T10:33:11;14.10;;;5.43;;
79616;SDS011;69097;52.132;5.422;2024-01-30T10:35:38;11.88;;;5.18;;
79616;SDS011;69097;52.132;5.422;2024-01-30T10:38:05;14.63;;;5.30;;
79616;SDS011;69097;52.132;5.422;2024-01-30T10:40:36;11.43;;;4.95;;
79616;SDS011;69097;52.132;5.422;2024-01-30T10:43:04;13.48;;;5.38;;
79616;SDS011;69097;52.132;5.422;2024-01-30T10:45:36;10.88;;;5.05;;
79616;SDS011;69097;52.132;5.422;2024-01-30T10:48:06;12.70;;;4.93;;
79616;SDS011;69097;52.132;5.422;2024-01-30T10:50:36;14.23;;;5.03;;
79616;SDS011;69097;52.132;5.422;2024-01-30T10:55:43;14.00;;;4.93;;
79616;SDS011;69097;52.132;5.422;2024-01-30T10:58:12;10.45;;;5.22;;
79616;SDS011;69097;52.132;5.422;2024-01-30T11:00:41;10.20;;;5.38;;
79616;SDS011;69097;52.132;5.422;2024-01-30T11:03:11;11.00;;;4.65;;
79616;SDS011;69097;52.132;5.422;2024-01-30T11:05:40;9.25;;;4.50;;
79616;SDS011;69097;52.132;5.422;2024-01-30T11:08:11;8.48;;;4.53;;
79616;SDS011;69097;52.132;5.422;2024-01-30T11:10:44;7.90;;;4.63;;
79616;SDS011;69097;52.132;5.422;2024-01-30T11:13:15;10.90;;;4.50;;
79616;SDS011;69097;52.132;5.422;2024-01-30T11:15:42;11.77;;;4.68;;
79616;SDS011;69097;52.132;5.422;2024-01-30T11:18:09;9.15;;;4.65;;
79616;SDS011;69097;52.132;5.422;2024-01-30T11:20:37;10.95;;;4.30;;
79616;SDS011;69097;52.132;5.422;2024-01-30T11:23:03;10.63;;;4.72;;
79616;SDS011;69097;52.132;5.422;2024-01-30T11:25:33;8.35;;;4.28;;
79616;SDS011;69097;52.132;5.422;2024-01-30T11:28:00;9.02;;;3.97;;
79616;SDS011;69097;52.132;5.422;2024-01-30T11:30:30;9.85;;;4.88;;
79616;SDS011;69097;52.132;5.422;2024-01-30T11:33:08;7.50;;;4.22;;
79616;SDS011;69097;52.132;5.422;2024-01-30T11:35:36;8.93;;;3.72;;
79616;SDS011;69097;52.132;5.422;2024-01-30T11:38:15;8.60;;;3.33;;
79616;SDS011;69097;52.132;5.422;2024-01-30T11:40:42;9.50;;;3.25;;
79616;SDS011;69097;52.132;5.422;2024-01-30T11:43:10;8.25;;;2.80;;
79616;SDS011;69097;52.132;5.422;2024-01-30T11:45:37;6.38;;;2.38;;
79616;SDS011;69097;52.132;5.422;2024-01-30T11:48:05;7.15;;;1.90;;
79616;SDS011;69097;52.132;5.422;2024-01-30T11:50:34;8.10;;;1.60;;
79616;SDS011;69097;52.132;5.422;2024-01-30T11:53:01;5.35;;;1.50;;
79616;SDS011;69097;52.132;5.422;2024-01-30T11:55:31;9.77;;;1.67;;
79616;SDS011;69097;52.132;5.422;2024-01-30T11:58:00;5.50;;;1.15;;
79616;SDS011;69097;52.132;5.422;2024-01-30T12:00:27;5.60;;;0.90;;
79616;SDS011;69097;52.132;5.422;2024-01-30T12:02:54;6.20;;;1.05;;
79616;SDS011;69097;52.132;5.422;2024-01-30T12:05:25;6.82;;;1.38;;
79616;SDS011;69097;52.132;5.422;2024-01-30T12:07:52;5.50;;;1.08;;
79616;SDS011;69097;52.132;5.422;2024-01-30T12:10:19;4.10;;;0.82;;
79616;SDS011;69097;52.132;5.422;2024-01-30T12:12:47;5.68;;;0.80;;
79616;SDS011;69097;52.132;5.422;2024-01-30T12:15:16;4.88;;;0.90;;
79616;SDS011;69097;52.132;5.422;2024-01-30T12:17:44;5.53;;;1.15;;
79616;SDS011;69097;52.132;5.422;2024-01-30T12:20:14;5.35;;;1.23;;
79616;SDS011;69097;52.132;5.422;2024-01-30T12:25:23;5.55;;;1.13;;
79616;SDS011;69097;52.132;5.422;2024-01-30T12:27:50;4.93;;;1.42;;
79616;SDS011;69097;52.132;5.422;2024-01-30T12:30:20;5.60;;;1.58;;
79616;SDS011;69097;52.132;5.422;2024-01-30T12:32:51;5.85;;;1.60;;
79616;SDS011;69097;52.132;5.422;2024-01-30T12:35:19;5.18;;;1.80;;
79616;SDS011;69097;52.132;5.422;2024-01-30T12:37:47;7.28;;;2.15;;
79616;SDS011;69097;52.132;5.422;2024-01-30T12:40:15;9.35;;;2.78;;
79616;SDS011;69097;52.132;5.422;2024-01-30T12:42:43;5.00;;;1.70;;
79616;SDS011;69097;52.132;5.422;2024-01-30T12:45:15;6.03;;;1.88;;
79616;SDS011;69097;52.132;5.422;2024-01-30T12:47:42;9.18;;;1.92;;
79616;SDS011;69097;52.132;5.422;2024-01-30T12:50:08;6.13;;;1.50;;
79616;SDS011;69097;52.132;5.422;2024-01-30T12:52:36;5.82;;;2.13;;
79616;SDS011;69097;52.132;5.422;2024-01-30T12:55:03;5.75;;;1.42;;
79616;SDS011;69097;52.132;5.422;2024-01-30T12:57:30;6.32;;;1.83;;
79616;SDS011;69097;52.132;5.422;2024-01-30T12:59:57;4.63;;;1.35;;
79616;SDS011;69097;52.132;5.422;2024-01-30T13:04:51;6.38;;;1.60;;
79616;SDS011;69097;52.132;5.422;2024-01-30T13:07:18;9.48;;;1.65;;
79616;SDS011;69097;52.132;5.422;2024-01-30T13:09:47;5.20;;;1.42;;
79616;SDS011;69097;52.132;5.422;2024-01-30T13:12:13;5.10;;;1.25;;
79616;SDS011;69097;52.132;5.422;2024-01-30T13:14:40;7.43;;;2.00;;
79616;SDS011;69097;52.132;5.422;2024-01-30T13:17:06;4.93;;;1.13;;
79616;SDS011;69097;52.132;5.422;2024-01-30T13:19:33;5.88;;;1.15;;
79616;SDS011;69097;52.132;5.422;2024-01-30T13:22:00;4.43;;;0.90;;
79616;SDS011;69097;52.132;5.422;2024-01-30T13:24:26;3.75;;;1.20;;
79616;SDS011;69097;52.132;5.422;2024-01-30T13:26:53;3.22;;;0.80;;
79616;SDS011;69097;52.132;5.422;2024-01-30T13:29:20;4.32;;;1.00;;
79616;SDS011;69097;52.132;5.422;2024-01-30T13:31:47;2.10;;;0.73;;
79616;SDS011;69097;52.132;5.422;2024-01-30T13:34:13;3.50;;;0.60;;
79616;SDS011;69097;52.132;5.422;2024-01-30T13:36:40;2.80;;;0.60;;
79616;SDS011;69097;52.132;5.422;2024-01-30T13:39:07;2.55;;;0.80;;
79616;SDS011;69097;52.132;5.422;2024-01-30T13:41:36;4.72;;;0.60;;
79616;SDS011;69097;52.132;5.422;2024-01-30T13:44:03;3.10;;;0.65;;
79616;SDS011;69097;52.132;5.422;2024-01-30T13:46:30;4.03;;;0.50;;
79616;SDS011;69097;52.132;5.422;2024-01-30T13:48:57;4.60;;;0.93;;
79616;SDS011;69097;52.132;5.422;2024-01-30T13:51:24;3.67;;;0.80;;
79616;SDS011;69097;52.132;5.422;2024-01-30T13:53:50;4.47;;;0.70;;
79616;SDS011;69097;52.132;5.422;2024-01-30T13:56:17;5.20;;;0.80;;
79616;SDS011;69097;52.132;5.422;2024-01-30T14:01:15;3.88;;;0.63;;
79616;SDS011;69097;52.132;5.422;2024-01-30T14:03:42;2.83;;;0.80;;
79616;SDS011;69097;52.132;5.422;2024-01-30T14:06:09;6.53;;;0.98;;
79616;SDS011;69097;52.132;5.422;2024-01-30T14:08:35;3.65;;;0.90;;
79616;SDS011;69097;52.132;5.422;2024-01-30T14:11:02;5.13;;;0.80;;
79616;SDS011;69097;52.132;5.422;2024-01-30T14:13:29;5.80;;;0.75;;
79616;SDS011;69097;52.132;5.422;2024-01-30T14:15:57;3.25;;;0.80;;
79616;SDS011;69097;52.132;5.422;2024-01-30T14:18:24;3.75;;;1.00;;
79616;SDS011;69097;52.132;5.422;2024-01-30T14:20:51;5.80;;;1.00;;
79616;SDS011;69097;52.132;5.422;2024-01-30T14:23:18;6.20;;;0.73;;
79616;SDS011;69097;52.132;5.422;2024-01-30T14:25:44;3.95;;;0.60;;
79616;SDS011;69097;52.132;5.422;2024-01-30T14:28:11;3.50;;;0.55;;
79616;SDS011;69097;52.132;5.422;2024-01-30T14:30:37;5.00;;;0.88;;
79616;SDS011;69097;52.132;5.422;2024-01-30T14:33:04;5.20;;;0.95;;
79616;SDS011;69097;52.132;5.422;2024-01-30T14:35:31;4.78;;;0.60;;
79616;SDS011;69097;52.132;5.422;2024-01-30T14:37:58;3.75;;;0.90;;
79616;SDS011;69097;52.132;5.422;2024-01-30T14:40:24;3.15;;;0.77;;
79616;SDS011;69097;52.132;5.422;2024-01-30T14:42:51;3.30;;;0.80;;
79616;SDS011;69097;52.132;5.422;2024-01-30T14:45:17;4.57;;;0.75;;
79616;SDS011;69097;52.132;5.422;2024-01-30T14:47:48;6.22;;;1.08;;
79616;SDS011;69097;52.132;5.422;2024-01-30T14:50:15;4.32;;;0.98;;
79616;SDS011;69097;52.132;5.422;2024-01-30T14:52:43;5.18;;;1.35;;
79616;SDS011;69097;52.132;5.422;2024-01-30T14:55:10;5.03;;;1.02;;
79616;SDS011;69097;52.132;5.422;2024-01-30T14:57:37;5.97;;;1.63;;
79616;SDS011;69097;52.132;5.422;2024-01-30T15:02:31;4.30;;;0.93;;